Time;durP1;ratioP1;P1;durP2;ratioP2;P2;SDS_P1;SDS_P2;PMS_P1;PMS_P2;Temp;Humidity;BMP_temperature;BMP_pressure;BME280_temperature;BME280_humidity;BME280_pressure;Samples;Min_cycle;Max_cycle;Signal;HPM_P1;HPM_P2
2022/12/12 10:37:06;;;;;;;35.90;17.95;;;1.40;99.90;;;;;;5087764;27;20942;-66
2022/12/12 10:39:34;;;;;;;40.97;19.05;;;1.40;99.90;;;;;;5086216;28;20119;-66
2022/12/12 10:42:29;;;;;;;38.88;19.65;;;1.40;99.90;;;;;;5086427;28;20046;-67
2022/12/12 10:45:12;;;;;;;38.55;19.98;;;1.40;99.90;;;;;;5086731;28;20043;-66
2022/12/12 10:47:38;;;;;;;45.90;22.02;;;1.50;99.90;;;;;;5086566;28;20040;-67
2022/12/12 10:50:09;;;;;;;41.78;22.00;;;1.60;99.90;;;;;;5086682;28;20503;-67
2022/12/12 10:52:36;;;;;;;39.00;20.55;;;1.70;99.90;;;;;;5069317;28;20106;-67
2022/12/12 10:55:16;;;;;;;40.33;20.60;;;1.70;99.90;;;;;;5087232;28;20075;-67
2022/12/12 10:57:41;;;;;;;37.47;19.73;;;1.70;99.90;;;;;;5086220;28;20045;-67
2022/12/12 11:00:23;;;;;;;38.30;19.30;;;1.70;99.90;;;;;;5072064;28;20043;-67
2022/12/12 11:02:49;;;;;;;34.58;19.50;;;1.80;99.90;;;;;;5074925;28;20122;-67
2022/12/12 11:05:26;;;;;;;35.13;19.38;;;1.80;99.90;;;;;;5070769;28;20115;-67
2022/12/12 11:08:03;;;;;;;39.95;19.50;;;1.90;99.90;;;;;;5086851;28;20058;-67
2022/12/12 11:10:36;;;;;;;37.45;20.42;;;1.90;99.90;;;;;;5068906;28;20044;-67
2022/12/12 11:13:08;;;;;;;33.75;19.25;;;1.90;99.90;;;;;;5063239;28;20384;-67
2022/12/12 11:15:51;;;;;;;32.72;19.58;;;2.00;99.90;;;;;;5076724;28;20040;-67
2022/12/12 11:18:20;;;;;;;34.80;20.20;;;2.00;99.90;;;;;;5087226;28;20043;-67
2022/12/12 11:21:08;;;;;;;38.50;20.80;;;2.00;99.90;;;;;;5085804;28;20041;-67
2022/12/12 11:23:38;;;;;;;34.42;19.40;;;2.00;99.90;;;;;;5086516;28;20549;-67
2022/12/12 11:26:12;;;;;;;35.30;18.85;;;2.00;99.90;;;;;;5087146;28;20067;-67
2022/12/12 11:28:39;;;;;;;31.17;19.05;;;2.10;99.90;;;;;;5085662;28;20044;-67
2022/12/12 11:31:09;;;;;;;34.38;19.10;;;2.10;99.90;;;;;;5085531;28;20051;-67
2022/12/12 11:33:57;;;;;;;36.42;19.85;;;2.20;99.90;;;;;;5085624;28;20041;-67
2022/12/12 11:36:32;;;;;;;32.80;19.20;;;2.20;99.90;;;;;;5068196;28;20055;-67
2022/12/12 11:39:01;;;;;;;31.67;18.08;;;2.20;99.90;;;;;;5068921;28;20059;-66
2022/12/12 11:41:27;;;;;;;33.33;18.35;;;2.20;99.90;;;;;;5085649;28;20040;-67
2022/12/12 11:43:59;;;;;;;36.13;21.90;;;2.20;99.90;;;;;;5076349;28;20056;-66
2022/12/12 11:46:30;;;;;;;35.20;19.27;;;2.20;99.90;;;;;;5082572;28;20120;-66
2022/12/12 11:48:59;;;;;;;34.10;20.08;;;2.30;99.90;;;;;;5072883;28;20049;-66
2022/12/12 11:51:44;;;;;;;32.60;18.83;;;2.30;99.90;;;;;;5072668;28;20043;-66
2022/12/12 11:54:20;;;;;;;35.83;20.42;;;2.30;99.90;;;;;;5071916;28;20091;-66
2022/12/12 11:56:56;;;;;;;35.78;19.75;;;2.30;99.90;;;;;;5072783;28;20044;-66
2022/12/12 11:59:28;;;;;;;34.22;20.60;;;2.40;99.90;;;;;;5071561;28;20045;-67
2022/12/12 12:02:23;;;;;;;37.10;19.25;;;2.40;99.90;;;;;;5071639;28;20040;-66
2022/12/12 12:05:03;;;;;;;34.80;20.58;;;2.40;99.90;;;;;;5048216;28;20048;-66
2022/12/12 12:07:43;;;;;;;33.27;17.20;;;2.60;99.90;;;;;;5061322;28;20041;-67
2022/12/12 12:10:30;;;;;;;34.22;19.13;;;2.70;99.90;;;;;;5066608;28;20630;-67
2022/12/12 12:13:02;;;;;;;35.95;21.35;;;2.90;99.90;;;;;;5055267;28;20090;-66
2022/12/12 12:15:55;;;;;;;35.78;18.23;;;3.10;99.90;;;;;;5067360;28;20049;-67
2022/12/12 12:18:49;;;;;;;37.58;20.92;;;3.20;99.90;;;;;;5044309;28;20508;-67
2022/12/12 12:21:25;;;;;;;38.40;21.48;;;3.20;99.90;;;;;;5070758;28;20049;-67
2022/12/12 12:23:50;;;;;;;33.28;19.75;;;3.10;99.90;;;;;;5072434;28;20040;-67
2022/12/12 12:26:51;;;;;;;35.40;20.08;;;3.00;99.90;;;;;;5071120;28;20423;-67
2022/12/12 12:29:20;;;;;;;;;;;2.90;99.90;;;;;;5072884;28;20048;-67
2022/12/12 12:32:11;;;;;;;37.47;20.52;;;2.80;99.90;;;;;;5059100;28;20281;-66
2022/12/12 12:34:53;;;;;;;35.65;20.60;;;2.70;99.90;;;;;;5071276;28;20483;-67
2022/12/12 12:37:43;;;;;;;34.90;19.38;;;2.70;99.90;;;;;;5071114;28;20055;-67
2022/12/12 12:40:13;;;;;;;30.52;18.77;;;2.70;99.90;;;;;;5070816;28;20048;-67
2022/12/12 12:42:56;;;;;;;33.55;19.92;;;2.70;99.90;;;;;;5070830;28;20074;-66
2022/12/12 12:45:22;;;;;;;32.22;18.63;;;2.70;99.90;;;;;;5054275;28;20083;-66
2022/12/12 12:48:00;;;;;;;31.48;18.10;;;2.70;99.90;;;;;;5061389;28;20073;-66
2022/12/12 12:50:49;;;;;;;34.70;19.95;;;2.80;99.90;;;;;;5054376;28;20051;-66
2022/12/12 12:53:36;;;;;;;38.08;21.10;;;2.80;99.90;;;;;;5062266;28;20060;-67
2022/12/12 12:56:13;;;;;;;31.73;18.17;;;2.90;99.90;;;;;;5070679;28;20496;-67
2022/12/12 12:58:44;;;;;;;30.85;19.02;;;2.90;99.90;;;;;;5060796;28;20063;-67
2022/12/12 13:01:27;;;;;;;30.67;18.58;;;3.00;99.90;;;;;;5071798;28;20041;-67
2022/12/12 13:04:12;;;;;;;31.98;17.35;;;3.00;99.90;;;;;;5069868;28;20040;-67
2022/12/12 13:06:53;;;;;;;25.70;15.20;;;3.00;99.90;;;;;;5071594;28;20072;-67
2022/12/12 13:09:40;;;;;;;28.50;16.50;;;3.00;99.90;;;;;;5070338;28;20037;-67
2022/12/12 13:12:17;;;;;;;29.52;18.75;;;2.90;99.90;;;;;;5070133;28;20489;-66
2022/12/12 13:14:51;;;;;;;32.78;18.75;;;2.70;99.90;;;;;;5071392;28;20047;-67
2022/12/12 13:17:25;;;;;;;34.03;18.83;;;2.60;99.90;;;;;;5070006;28;20412;-66
2022/12/12 13:19:55;;;;;;;31.73;17.92;;;2.60;99.90;;;;;;5048694;28;20414;-66
2022/12/12 13:22:50;;;;;;;31.20;18.97;;;2.40;99.90;;;;;;5046485;28;20098;-66
2022/12/12 13:25:31;;;;;;;35.15;20.20;;;2.40;99.90;;;;;;5049211;28;21051;-67
2022/12/12 13:27:59;;;;;;;32.55;19.60;;;2.30;99.90;;;;;;5043358;28;20041;-66
2022/12/12 13:30:55;;;;;;;32.97;19.23;;;2.20;99.90;;;;;;5049853;28;20045;-66
2022/12/12 13:33:33;;;;;;;35.97;21.00;;;2.20;99.90;;;;;;5045425;28;20073;-66
2022/12/12 13:36:18;;;;;;;35.35;20.63;;;2.30;99.90;;;;;;5049372;28;20136;-66
2022/12/12 13:38:54;;;;;;;37.80;21.15;;;2.30;99.90;;;;;;5042444;28;20045;-66
2022/12/12 13:41:20;;;;;;;39.00;21.50;;;2.30;99.90;;;;;;5050891;28;20098;-66
2022/12/12 13:43:48;;;;;;;36.55;21.45;;;2.20;99.90;;;;;;5032851;28;20481;-66
2022/12/12 13:46:20;;;;;;;37.60;21.88;;;2.20;99.90;;;;;;5050775;28;20059;-66
2022/12/12 13:49:04;;;;;;;40.75;22.98;;;2.20;99.90;;;;;;5049145;28;20056;-66
2022/12/12 13:51:34;;;;;;;36.55;20.33;;;2.10;99.90;;;;;;5049415;28;20045;-66
2022/12/12 13:54:06;;;;;;;;;;;2.00;99.90;;;;;;5049609;28;20044;-66
2022/12/12 13:56:42;;;;;;;38.15;21.40;;;1.90;99.90;;;;;;5048973;28;20010;-66
2022/12/12 13:59:26;;;;;;;36.55;20.77;;;1.90;99.90;;;;;;5049482;28;20112;-66
2022/12/12 14:02:30;;;;;;;36.33;21.38;;;1.70;99.90;;;;;;5031338;28;20533;-66
2022/12/12 14:05:12;;;;;;;36.55;20.40;;;1.50;99.90;;;;;;5044279;28;20045;-66
2022/12/12 14:07:46;;;;;;;35.70;19.92;;;1.40;99.90;;;;;;5048861;28;20552;-66
2022/12/12 14:10:26;;;;;;;39.00;19.60;;;1.30;99.90;;;;;;5048017;28;20037;-66
2022/12/12 14:12:53;;;;;;;38.05;21.15;;;1.30;99.90;;;;;;5032422;28;20041;-66
2022/12/12 14:15:30;;;;;;;40.05;22.38;;;1.20;99.90;;;;;;5048780;28;20505;-66
2022/12/12 14:18:00;;;;;;;39.70;21.73;;;1.10;99.90;;;;;;5048955;28;20052;-66
2022/12/12 14:20:29;;;;;;;;;;;1.10;99.90;;;;;;5028786;28;20074;-66
2022/12/12 14:22:57;;;;;;;39.05;21.42;;;1.10;99.90;;;;;;5050214;28;19916;-66
2022/12/12 14:25:37;;;;;;;41.97;22.17;;;1.10;99.90;;;;;;5031354;28;20049;-66
2022/12/12 14:28:22;;;;;;;30.27;16.80;;;1.10;99.90;;;;;;5050284;28;20127;-66
2022/12/12 14:30:55;;;;;;;39.30;22.48;;;1.10;99.90;;;;;;5048433;28;20045;-66
2022/12/12 14:33:39;;;;;;;41.90;21.73;;;1.10;99.90;;;;;;5049006;28;20118;-66
2022/12/12 14:36:28;;;;;;;39.55;20.73;;;1.10;99.90;;;;;;5043055;28;20061;-66
2022/12/12 14:39:13;;;;;;;37.08;21.08;;;1.00;99.90;;;;;;5048619;28;20485;-66
2022/12/12 14:41:41;;;;;;;36.90;20.92;;;0.90;99.90;;;;;;5042562;28;20537;-66
2022/12/12 14:44:18;;;;;;;38.67;20.77;;;0.90;99.90;;;;;;5050112;28;20037;-66
2022/12/12 14:46:44;;;;;;;40.35;20.52;;;0.90;99.90;;;;;;5048484;28;20041;-67
2022/12/12 14:49:14;;;;;;;38.95;21.13;;;0.90;99.90;;;;;;5048562;28;20049;-66
2022/12/12 14:51:40;;;;;;;40.67;20.70;;;0.80;99.90;;;;;;5050101;28;20041;-67
2022/12/12 14:54:18;;;;;;;35.83;19.27;;;0.80;99.90;;;;;;5049784;28;20051;-66
2022/12/12 14:56:57;;;;;;;36.92;20.30;;;0.70;99.90;;;;;;5048339;28;20587;-67
2022/12/12 14:59:37;;;;;;;40.22;22.23;;;0.60;99.90;;;;;;5048879;28;20044;-67
2022/12/12 15:02:24;;;;;;;29.63;14.95;;;0.60;99.90;;;;;;5048531;28;20037;-66
2022/12/12 15:04:56;;;;;;;35.60;20.70;;;0.60;99.90;;;;;;5048769;28;20414;-66
2022/12/12 15:07:31;;;;;;;35.78;20.25;;;0.50;99.90;;;;;;5049792;28;20065;-66
2022/12/12 15:09:57;;;;;;;39.45;20.65;;;0.50;99.90;;;;;;5049833;28;20112;-66
2022/12/12 15:12:25;;;;;;;44.58;21.90;;;0.40;99.90;;;;;;5049947;28;20175;-66
2022/12/12 15:14:56;;;;;;;34.28;20.08;;;0.40;99.90;;;;;;5048062;28;20045;-66
2022/12/12 15:17:47;;;;;;;39.58;21.65;;;0.30;99.90;;;;;;5048669;28;20072;-66
2022/12/12 15:20:18;;;;;;;42.85;22.70;;;0.20;99.90;;;;;;5031990;28;20033;-66
2022/12/12 15:22:56;;;;;;;34.17;19.92;;;0.20;99.90;;;;;;5041083;28;20041;-66
2022/12/12 15:25:41;;;;;;;36.10;19.95;;;0.10;99.90;;;;;;5052014;28;20045;-66
2022/12/12 15:28:14;;;;;;;42.03;21.42;;;0.10;99.90;;;;;;5052271;28;20048;-65
2022/12/12 15:30:42;;;;;;;39.53;22.23;;;0.00;99.90;;;;;;5052980;28;20098;-66
2022/12/12 15:33:19;;;;;;;44.40;24.48;;;-0.10;99.90;;;;;;5052121;28;20048;-65
2022/12/12 15:35:55;;;;;;;43.00;23.13;;;-0.10;99.90;;;;;;5051764;28;20131;-66
2022/12/12 15:38:21;;;;;;;45.78;24.05;;;-0.10;99.90;;;;;;5052570;28;20041;-66
2022/12/12 15:40:53;;;;;;;37.25;20.85;;;-0.20;99.90;;;;;;5051079;28;20067;-66
2022/12/12 15:43:26;;;;;;;38.38;21.60;;;-0.20;99.90;;;;;;5052724;28;20079;-65
2022/12/12 15:46:01;;;;;;;38.80;22.38;;;-0.30;99.90;;;;;;5051859;28;20098;-66
2022/12/12 15:48:27;;;;;;;47.63;23.95;;;-0.30;99.90;;;;;;5052969;28;20462;-66
2022/12/12 15:51:02;;;;;;;43.53;22.92;;;-0.40;99.90;;;;;;5053256;28;20052;-65
2022/12/12 15:53:45;;;;;;;41.30;23.00;;;-0.40;99.90;;;;;;5051823;28;20079;-66
2022/12/12 15:56:29;;;;;;;46.40;24.40;;;-0.40;99.90;;;;;;5043396;28;20128;-66
2022/12/12 15:59:04;;;;;;;48.38;24.00;;;-0.50;99.90;;;;;;5051203;28;20441;-66
2022/12/12 16:01:30;;;;;;;47.63;22.85;;;-0.50;99.90;;;;;;5044500;28;20137;-66
2022/12/12 16:04:05;;;;;;;44.67;24.45;;;-0.50;99.90;;;;;;5051781;28;20385;-66
2022/12/12 16:06:44;;;;;;;43.97;24.52;;;-0.60;99.90;;;;;;5051431;28;20045;-66
2022/12/12 16:09:16;;;;;;;44.25;22.17;;;-0.60;99.90;;;;;;5051321;28;20037;-66
2022/12/12 16:11:53;;;;;;;48.13;22.50;;;-0.60;99.90;;;;;;5052487;28;20053;-67
2022/12/12 16:14:23;;;;;;;41.05;21.30;;;-0.70;99.90;;;;;;5052614;28;20055;-67
2022/12/12 16:17:00;;;;;;;43.75;20.58;;;-0.70;99.90;;;;;;5051470;28;20044;-66
2022/12/12 16:19:35;;;;;;;46.90;25.02;;;-0.80;99.90;;;;;;5052418;28;20049;-67
2022/12/12 16:22:15;;;;;;;42.45;22.98;;;-0.80;99.90;;;;;;5052667;28;20048;-67
2022/12/12 16:24:50;;;;;;;39.58;18.88;;;-0.90;99.90;;;;;;5034988;28;20037;-66
2022/12/12 16:27:16;;;;;;;52.42;25.90;;;-0.90;99.90;;;;;;5050655;28;20041;-66
2022/12/12 16:29:42;;;;;;;50.33;24.10;;;-0.90;99.90;;;;;;5051333;28;20036;-66
2022/12/12 16:32:13;;;;;;;51.50;25.13;;;-0.90;99.90;;;;;;5050817;28;20119;-65
2022/12/12 16:34:39;;;;;;;57.30;28.42;;;-0.90;99.90;;;;;;5041501;28;20052;-66
2022/12/12 16:37:04;;;;;;;50.17;25.33;;;-0.90;99.90;;;;;;5050838;28;20094;-66
2022/12/12 16:39:30;;;;;;;45.45;22.65;;;-0.90;99.90;;;;;;5052239;28;20045;-66
2022/12/12 16:41:56;;;;;;;41.03;20.90;;;-0.90;99.90;;;;;;5051658;28;20070;-66
2022/12/12 16:44:22;;;;;;;42.95;22.30;;;-1.00;99.90;;;;;;5051951;28;20099;-66
2022/12/12 16:46:48;;;;;;;47.17;25.15;;;-1.10;99.90;;;;;;5050827;28;20045;-66
2022/12/12 16:49:13;;;;;;;52.03;24.58;;;-1.20;99.90;;;;;;5050777;28;20126;-67
2022/12/12 16:51:40;;;;;;;51.17;24.38;;;-1.30;99.90;;;;;;5050714;28;20084;-66
2022/12/12 16:54:16;;;;;;;56.63;27.20;;;-1.20;99.90;;;;;;5050111;28;20163;-66
2022/12/12 16:56:42;;;;;;;55.58;26.02;;;-1.20;99.90;;;;;;5049687;28;20116;-66
2022/12/12 16:59:09;;;;;;;63.42;27.63;;;-1.30;99.90;;;;;;5051042;28;20037;-67
2022/12/12 17:01:35;;;;;;;52.92;26.63;;;-1.20;99.90;;;;;;5051123;28;20044;-66
2022/12/12 17:04:01;;;;;;;60.22;27.90;;;-1.20;99.90;;;;;;5033911;28;20037;-67
2022/12/12 17:06:26;;;;;;;59.80;31.20;;;-1.20;99.90;;;;;;5050540;28;20120;-66
2022/12/12 17:08:52;;;;;;;53.22;26.70;;;-1.10;99.90;;;;;;5051415;28;20149;-66
2022/12/12 17:11:18;;;;;;;55.72;28.08;;;-1.10;99.90;;;;;;5051151;28;20045;-66
2022/12/12 17:13:47;;;;;;;51.72;27.25;;;-1.10;99.90;;;;;;5050410;28;20362;-67
2022/12/12 17:16:14;;;;;;;54.60;27.77;;;-1.10;99.90;;;;;;5051363;28;20037;-66
2022/12/12 17:18:39;;;;;;;54.75;26.98;;;-1.10;99.90;;;;;;5033828;28;20378;-66
2022/12/12 17:21:05;;;;;;;52.33;26.58;;;-1.10;99.90;;;;;;5033702;28;20107;-65
2022/12/12 17:23:31;;;;;;;55.17;25.80;;;-1.20;99.90;;;;;;5049938;28;20041;-65
2022/12/12 17:25:57;;;;;;;55.15;27.90;;;-1.20;99.90;;;;;;5049619;28;20044;-66
2022/12/12 17:28:23;;;;;;;53.00;27.30;;;-1.30;99.90;;;;;;5049960;28;20052;-66
2022/12/12 17:30:49;;;;;;;59.28;29.42;;;-1.30;99.90;;;;;;5051188;28;20049;-66
2022/12/12 17:33:17;;;;;;;58.33;29.45;;;-1.30;99.90;;;;;;5049963;28;20044;-65
2022/12/12 17:35:43;;;;;;;55.90;29.98;;;-1.30;99.90;;;;;;5049474;28;20064;-66
2022/12/12 17:38:09;;;;;;;58.17;27.20;;;-1.30;99.90;;;;;;5050994;28;20052;-66
2022/12/12 17:40:35;;;;;;;56.72;29.33;;;-1.40;99.90;;;;;;5049157;28;20056;-66
2022/12/12 17:43:02;;;;;;;65.78;29.75;;;-1.40;99.90;;;;;;5050744;28;20041;-66
2022/12/12 17:45:29;;;;;;;59.88;27.92;;;-1.40;99.90;;;;;;5049031;28;20118;-66
2022/12/12 17:47:56;;;;;;;68.72;30.45;;;-1.40;99.90;;;;;;5050776;28;20086;-66
2022/12/12 17:50:22;;;;;;;66.22;28.92;;;-1.40;99.90;;;;;;5049265;28;20179;-66
2022/12/12 17:52:48;;;;;;;67.70;30.73;;;-1.40;99.90;;;;;;5049898;28;20132;-66
2022/12/12 17:55:14;;;;;;;63.63;29.05;;;-1.50;99.90;;;;;;5048839;28;20539;-65
2022/12/12 17:57:40;;;;;;;58.22;30.00;;;-1.40;99.90;;;;;;5050833;28;20083;-66
2022/12/12 18:00:07;;;;;;;61.97;29.83;;;-1.50;99.90;;;;;;5050829;28;20032;-66
2022/12/12 18:02:32;;;;;;;63.10;30.65;;;-1.50;99.90;;;;;;5049395;28;20056;-66
2022/12/12 18:04:58;;;;;;;67.47;32.65;;;-1.50;99.90;;;;;;5050605;28;20033;-66
2022/12/12 18:07:24;;;;;;;67.72;29.70;;;-1.50;99.90;;;;;;5048786;28;20068;-66
2022/12/12 18:09:50;;;;;;;65.45;30.05;;;-1.50;99.90;;;;;;5048731;28;20079;-66
2022/12/12 18:12:16;;;;;;;58.35;30.20;;;-1.60;99.90;;;;;;5050649;28;20057;-66
2022/12/12 18:14:42;;;;;;;60.58;28.65;;;-1.60;99.90;;;;;;5082741;28;20045;-66
2022/12/12 18:17:07;;;;;;;50.63;26.52;;;-1.60;99.90;;;;;;5048814;28;20047;-66
2022/12/12 18:19:33;;;;;;;61.75;29.77;;;-1.70;99.90;;;;;;5048823;28;20045;-66
2022/12/12 18:21:59;;;;;;;62.25;28.50;;;-1.70;99.90;;;;;;5030426;28;20063;-66
2022/12/12 18:24:29;;;;;;;65.22;29.55;;;-1.80;99.90;;;;;;5048533;28;20469;-66
2022/12/12 18:26:57;;;;;;;51.65;24.13;;;-1.80;99.90;;;;;;5032238;28;20033;-66
2022/12/12 18:29:24;;;;;;;64.47;29.75;;;-1.80;99.90;;;;;;5048648;28;20665;-66
2022/12/12 18:31:50;;;;;;;60.72;29.05;;;-1.90;99.90;;;;;;5048820;28;20489;-66
2022/12/12 18:34:16;;;;;;;66.68;30.85;;;-1.90;99.90;;;;;;5050351;28;20107;-66
2022/12/12 18:36:42;;;;;;;58.67;29.67;;;-2.00;99.90;;;;;;5048379;28;20060;-66
2022/12/12 18:39:09;;;;;;;64.80;31.00;;;-2.00;99.90;;;;;;5049689;28;20616;-66
2022/12/12 18:41:35;;;;;;;54.97;28.45;;;-2.00;99.90;;;;;;5049809;28;20044;-66
2022/12/12 18:44:06;;;;;;;58.13;29.48;;;-2.10;99.90;;;;;;5049779;28;20033;-66
2022/12/12 18:46:33;;;;;;;60.22;30.55;;;-2.10;99.90;;;;;;5049986;28;20077;-66
2022/12/12 18:48:59;;;;;;;61.72;30.77;;;-2.10;99.90;;;;;;5048772;28;20053;-66
2022/12/12 18:51:26;;;;;;;69.32;32.85;;;-2.20;99.90;;;;;;5049419;28;20500;-66
2022/12/12 18:53:54;;;;;;;67.32;32.22;;;-2.20;99.90;;;;;;5050024;28;20045;-66
2022/12/12 18:56:23;;;;;;;68.35;31.92;;;-2.20;99.90;;;;;;5048764;28;20397;-66
2022/12/12 18:58:51;;;;;;;59.03;28.63;;;-2.20;99.90;;;;;;5052782;28;20389;-66
2022/12/12 19:01:20;;;;;;;57.95;27.05;;;-2.20;99.90;;;;;;5052647;28;20044;-66
2022/12/12 19:03:49;;;;;;;59.90;28.00;;;-2.30;99.90;;;;;;5054002;28;20036;-66
2022/12/12 19:06:17;;;;;;;60.05;27.60;;;-2.30;99.90;;;;;;5052339;28;20045;-66
2022/12/12 19:08:43;;;;;;;60.20;27.85;;;-2.40;99.90;;;;;;5052759;28;20052;-66
2022/12/12 19:11:10;;;;;;;64.10;30.88;;;-2.50;99.90;;;;;;5053498;28;20045;-66
2022/12/12 19:13:36;;;;;;;77.35;35.03;;;-2.50;99.90;;;;;;5052500;28;20457;-67
2022/12/12 19:16:11;;;;;;;80.82;36.90;;;-2.60;99.90;;;;;;5052361;28;20553;-66
2022/12/12 19:18:37;;;;;;;75.90;34.20;;;-2.60;99.90;;;;;;5035785;28;20123;-66
2022/12/12 19:21:07;;;;;;;61.78;29.17;;;-2.60;99.90;;;;;;5053469;28;20044;-66
2022/12/12 19:23:35;;;;;;;59.15;27.52;;;-2.50;99.90;;;;;;5057036;28;20040;-67
2022/12/12 19:26:07;;;;;;;63.20;30.35;;;-2.60;99.90;;;;;;5053026;28;20115;-67
2022/12/12 19:28:33;;;;;;;67.18;29.05;;;-2.70;99.90;;;;;;5035407;28;20044;-66
2022/12/12 19:31:04;;;;;;;68.88;30.70;;;-2.70;99.90;;;;;;5053502;28;20083;-66
2022/12/12 19:33:32;;;;;;;59.08;28.23;;;-2.80;99.90;;;;;;5052224;28;20045;-66
2022/12/12 19:35:57;;;;;;;61.63;30.65;;;-2.90;99.90;;;;;;5051350;28;20493;-66
2022/12/12 19:38:23;;;;;;;64.20;29.00;;;-2.90;99.90;;;;;;5052124;28;20060;-66
2022/12/12 19:40:49;;;;;;;62.00;29.50;;;-3.00;99.90;;;;;;5051904;28;20045;-67
2022/12/12 19:43:15;;;;;;;79.05;34.75;;;-3.00;99.90;;;;;;5053231;28;20033;-66
2022/12/12 19:45:41;;;;;;;77.63;34.83;;;-3.00;99.90;;;;;;5053281;28;20124;-66
2022/12/12 19:48:06;;;;;;;70.78;34.40;;;-3.00;99.90;;;;;;5055922;28;20068;-66
2022/12/12 19:50:35;;;;;;;68.65;32.53;;;-2.90;99.90;;;;;;5052314;28;20052;-66
2022/12/12 19:53:04;;;;;;;66.53;34.50;;;-2.90;99.90;;;;;;5051693;28;20052;-66
2022/12/12 19:55:32;;;;;;;72.75;33.30;;;-2.80;99.90;;;;;;5052145;28;20041;-66
2022/12/12 19:57:59;;;;;;;70.47;32.85;;;-2.80;99.90;;;;;;5051755;28;20080;-66
2022/12/12 20:00:25;;;;;;;60.97;29.77;;;-2.80;99.90;;;;;;5052317;28;20624;-66
2022/12/12 20:02:50;;;;;;;59.63;29.33;;;-2.90;99.90;;;;;;5051733;28;20124;-66
2022/12/12 20:05:16;;;;;;;63.45;30.63;;;-2.90;99.90;;;;;;5051397;28;20496;-66
2022/12/12 20:07:42;;;;;;;59.72;31.67;;;-2.90;99.90;;;;;;5051070;28;20507;-66
2022/12/12 20:10:08;;;;;;;67.47;32.10;;;-2.90;99.90;;;;;;5051790;28;20045;-66
2022/12/12 20:12:34;;;;;;;69.72;32.47;;;-2.90;99.90;;;;;;5034841;28;20068;-66
2022/12/12 20:15:00;;;;;;;72.65;33.85;;;-2.90;99.90;;;;;;5051101;28;20041;-66
2022/12/12 20:17:25;;;;;;;69.97;32.03;;;-3.00;99.90;;;;;;5051654;28;20093;-66
2022/12/12 20:19:51;;;;;;;64.22;31.00;;;-3.00;99.90;;;;;;5050792;28;20045;-66
2022/12/12 20:22:17;;;;;;;59.17;30.83;;;-3.00;99.90;;;;;;5051058;28;20063;-66
2022/12/12 20:24:43;;;;;;;64.95;32.72;;;-3.00;99.90;;;;;;5042494;28;20187;-66
2022/12/12 20:27:10;;;;;;;67.95;30.60;;;-3.00;99.90;;;;;;5051322;28;20045;-66
2022/12/12 20:29:36;;;;;;;67.68;32.65;;;-3.00;99.90;;;;;;5051083;28;20120;-65
2022/12/12 20:32:02;;;;;;;66.68;33.30;;;-3.00;99.90;;;;;;5051049;28;20128;-65
2022/12/12 20:34:28;;;;;;;65.88;32.30;;;-3.00;99.90;;;;;;5050548;28;20095;-65
2022/12/12 20:36:57;;;;;;;68.20;33.42;;;-3.00;99.90;;;;;;5052072;28;20057;-65
2022/12/12 20:39:24;;;;;;;67.78;30.05;;;-3.00;99.90;;;;;;5050693;28;20045;-65
2022/12/12 20:41:52;;;;;;;61.65;27.95;;;-3.00;99.90;;;;;;5052065;28;20102;-65
2022/12/12 20:44:18;;;;;;;61.67;28.52;;;-3.10;99.90;;;;;;5052219;28;20086;-65
2022/12/12 20:46:48;;;;;;;54.20;27.48;;;-3.10;99.90;;;;;;5050801;28;20112;-65
2022/12/12 20:49:21;;;;;;;61.03;27.52;;;-3.10;99.90;;;;;;5055031;28;20079;-65
2022/12/12 20:51:49;;;;;;;54.55;27.25;;;-3.10;99.90;;;;;;5051679;28;20051;-65
2022/12/12 20:54:15;;;;;;;62.03;29.48;;;-3.10;99.90;;;;;;5050809;28;20036;-66
2022/12/12 20:56:41;;;;;;;59.25;28.65;;;-3.10;99.90;;;;;;5052000;28;20056;-65
2022/12/12 20:59:09;;;;;;;65.55;32.00;;;-3.10;99.90;;;;;;5051846;28;20041;-65
2022/12/12 21:01:36;;;;;;;58.13;27.75;;;-3.10;99.90;;;;;;5050214;28;20041;-65
2022/12/12 21:04:10;;;;;;;60.45;27.98;;;-3.10;99.90;;;;;;5050106;28;20041;-65
2022/12/12 21:06:41;;;;;;;58.85;29.63;;;-3.10;99.90;;;;;;5051392;28;20515;-65
2022/12/12 21:09:09;;;;;;;57.67;27.65;;;-3.10;99.90;;;;;;5050362;28;20047;-65
2022/12/12 21:11:37;;;;;;;53.72;24.73;;;-3.10;99.90;;;;;;5050411;28;20048;-65
2022/12/12 21:14:03;;;;;;;51.47;25.42;;;-3.10;99.90;;;;;;5050386;28;20064;-65
2022/12/12 21:16:32;;;;;;;46.42;23.08;;;-3.10;99.90;;;;;;5049461;28;20485;-65
2022/12/12 21:19:01;;;;;;;55.80;27.17;;;-3.20;99.90;;;;;;5049922;28;20416;-65
2022/12/12 21:21:28;;;;;;;48.88;26.50;;;-3.20;99.90;;;;;;5049119;28;20090;-65
2022/12/12 21:23:54;;;;;;;56.03;25.70;;;-3.20;99.90;;;;;;5050078;28;20052;-65
2022/12/12 21:26:24;;;;;;;48.10;25.98;;;-3.30;99.90;;;;;;5034133;28;20041;-65
2022/12/12 21:29:08;;;;;;;52.60;25.73;;;-3.30;99.90;;;;;;5002444;28;20678;-64
2022/12/12 21:31:37;;;;;;;46.25;22.55;;;-3.40;99.90;;;;;;5019908;28;20050;-64
2022/12/12 21:34:04;;;;;;;45.00;23.55;;;-3.40;99.90;;;;;;5013257;28;20462;-65
2022/12/12 21:36:30;;;;;;;49.08;24.85;;;-3.40;99.90;;;;;;5029658;28;20057;-64
2022/12/12 21:38:58;;;;;;;45.67;23.98;;;-3.40;99.90;;;;;;5020294;28;20081;-64
2022/12/12 21:41:24;;;;;;;48.17;22.63;;;-3.40;99.90;;;;;;5021036;28;20038;-64
2022/12/12 21:43:50;;;;;;;47.42;23.30;;;-3.50;99.90;;;;;;5019995;28;20397;-64
2022/12/12 21:46:21;;;;;;;41.20;21.77;;;-3.60;99.90;;;;;;5018275;28;20054;-64
2022/12/12 21:49:33;;;;;;;51.58;24.92;;;-3.60;99.90;;;;;;5019875;28;20149;-64
2022/12/12 21:51:34;;;;;;;50.85;25.52;;;-3.60;99.90;;;;;;5012102;28;20041;-64
2022/12/12 21:54:02;;;;;;;48.28;25.42;;;-3.70;99.90;;;;;;4993374;28;20057;-64
2022/12/12 21:56:29;;;;;;;55.28;26.70;;;-3.70;99.90;;;;;;5011019;28;20034;-64
2022/12/12 21:58:56;;;;;;;49.92;25.95;;;-3.80;99.90;;;;;;5009770;28;20038;-64
2022/12/12 22:01:22;;;;;;;46.92;24.77;;;-3.80;99.90;;;;;;5017474;28;20049;-64
2022/12/12 22:03:49;;;;;;;50.67;27.42;;;-3.80;99.90;;;;;;5019444;28;20084;-64
2022/12/12 22:06:19;;;;;;;52.88;25.35;;;-3.90;99.90;;;;;;5019981;28;20453;-63
2022/12/12 22:08:46;;;;;;;35.92;19.05;;;-3.90;99.90;;;;;;5019195;28;20072;-63
2022/12/12 22:11:13;;;;;;;47.75;24.50;;;-3.90;99.90;;;;;;5004161;28;20076;-63
2022/12/12 22:13:39;;;;;;;49.97;24.80;;;-3.90;99.90;;;;;;5012785;28;20103;-63
2022/12/12 22:16:09;;;;;;;51.72;27.23;;;-3.90;99.90;;;;;;5021738;28;20083;-63
2022/12/12 22:18:35;;;;;;;54.20;28.52;;;-3.90;99.90;;;;;;5020802;28;20061;-63
2022/12/12 22:21:03;;;;;;;57.88;28.63;;;-3.90;99.90;;;;;;5019616;28;20121;-63
2022/12/12 22:23:29;;;;;;;47.90;25.42;;;-3.90;99.90;;;;;;5021926;28;20045;-62
2022/12/12 22:25:54;;;;;;;51.30;25.92;;;-3.80;99.90;;;;;;5021345;28;20377;-63
2022/12/12 22:28:20;;;;;;;55.65;27.60;;;-3.80;99.90;;;;;;5021014;28;20041;-63
2022/12/12 22:30:46;;;;;;;51.60;25.10;;;-3.80;99.90;;;;;;5019205;28;20088;-63
2022/12/12 22:33:12;;;;;;;51.30;26.35;;;-3.80;99.90;;;;;;5021235;28;20077;-62
2022/12/12 22:35:38;;;;;;;49.17;25.33;;;-3.80;99.90;;;;;;5009340;28;20121;-62
2022/12/12 22:38:04;;;;;;;52.65;28.23;;;-3.80;99.90;;;;;;5019958;28;20124;-63
2022/12/12 22:40:29;;;;;;;46.67;24.80;;;-3.80;99.90;;;;;;5021495;28;89981;-62
2022/12/12 22:42:58;;;;;;;52.45;24.75;;;-3.80;99.90;;;;;;5049382;28;20038;-62
2022/12/12 22:45:24;;;;;;;46.70;24.98;;;-3.90;99.90;;;;;;5052939;28;20053;-62
2022/12/12 22:47:51;;;;;;;51.58;22.77;;;-3.90;99.90;;;;;;5021780;28;20057;-63
2022/12/12 22:50:16;;;;;;;41.17;22.33;;;-3.90;99.90;;;;;;5019794;28;20064;-63
2022/12/12 22:52:42;;;;;;;49.67;24.67;;;-4.00;99.90;;;;;;5020842;28;20470;-62
2022/12/12 22:55:08;;;;;;;47.47;22.70;;;-4.00;99.90;;;;;;5028702;28;20103;-62
2022/12/12 22:57:34;;;;;;;42.13;23.02;;;-4.00;99.90;;;;;;5062194;28;20033;-62
2022/12/12 23:00:00;;;;;;;46.22;24.20;;;-4.10;99.90;;;;;;5029906;28;20042;-62
2022/12/12 23:02:26;;;;;;;48.72;24.40;;;-4.10;99.90;;;;;;5021739;28;20150;-62
2022/12/12 23:04:52;;;;;;;43.42;22.83;;;-4.10;99.90;;;;;;5017889;28;20092;-62
2022/12/12 23:07:18;;;;;;;48.92;25.42;;;-4.10;99.90;;;;;;5019320;28;20042;-62
2022/12/12 23:09:51;;;;;;;51.03;24.92;;;-4.10;99.90;;;;;;5019271;28;20042;-63
2022/12/12 23:12:20;;;;;;;46.70;23.80;;;-4.10;99.90;;;;;;5018673;28;20505;-62
2022/12/12 23:14:46;;;;;;;59.30;25.75;;;-4.00;99.90;;;;;;5028437;28;20048;-62
2022/12/12 23:17:12;;;;;;;49.70;24.65;;;-4.00;99.90;;;;;;5025425;28;20097;-62
2022/12/12 23:19:37;;;;;;;43.10;22.58;;;-4.10;99.90;;;;;;5017292;28;20046;-62
2022/12/12 23:22:03;;;;;;;49.58;24.48;;;-4.10;99.90;;;;;;5014552;28;20030;-62
2022/12/12 23:24:29;;;;;;;53.67;26.02;;;-4.10;99.90;;;;;;5052720;28;20088;-62
2022/12/12 23:26:55;;;;;;;55.08;26.27;;;-4.10;99.90;;;;;;5021098;28;20063;-62